sensor_id;sensor_type;location;lat;lon;timestamp;pressure;altitude;pressure_sealevel;temperature;humidity
9009;BME280;62813;51.424;6.762;2023-08-31T00:01:03;100536.84;;;14.45;73.92
9009;BME280;62813;51.424;6.762;2023-08-31T00:03:31;100536.25;;;14.29;74.35
9009;BME280;62813;51.424;6.762;2023-08-31T00:06:01;100545.75;;;14.49;73.30
9009;BME280;62813;51.424;6.762;2023-08-31T00:08:28;100542.56;;;14.33;73.70
9009;BME280;62813;51.424;6.762;2023-08-31T00:10:59;100543.72;;;14.27;73.95
9009;BME280;62813;51.424;6.762;2023-08-31T00:13:29;100543.78;;;14.22;74.48
9009;BME280;62813;51.424;6.762;2023-08-31T00:15:56;100539.09;;;14.19;75.24
9009;BME280;62813;51.424;6.762;2023-08-31T00:18:25;100539.63;;;14.35;74.18
9009;BME280;62813;51.424;6.762;2023-08-31T00:20:51;100538.63;;;14.31;74.62
9009;BME280;62813;51.424;6.762;2023-08-31T00:23:18;100547.16;;;14.28;74.85
9009;BME280;62813;51.424;6.762;2023-08-31T00:25:48;100543.50;;;14.24;74.99
9009;BME280;62813;51.424;6.762;2023-08-31T00:28:15;100551.41;;;14.29;74.37
9009;BME280;62813;51.424;6.762;2023-08-31T00:30:45;100552.16;;;14.29;73.92
9009;BME280;62813;51.424;6.762;2023-08-31T00:33:13;100545.16;;;14.38;74.52
9009;BME280;62813;51.424;6.762;2023-08-31T00:35:40;100547.72;;;14.44;73.68
9009;BME280;62813;51.424;6.762;2023-08-31T00:38:13;100549.22;;;14.31;73.80
9009;BME280;62813;51.424;6.762;2023-08-31T00:40:44;100542.31;;;14.16;73.66
9009;BME280;62813;51.424;6.762;2023-08-31T00:43:14;100545.53;;;14.13;74.83
9009;BME280;62813;51.424;6.762;2023-08-31T00:45:48;100547.31;;;14.18;75.22
9009;BME280;62813;51.424;6.762;2023-08-31T00:48:17;100543.38;;;14.15;74.57
9009;BME280;62813;51.424;6.762;2023-08-31T00:50:45;100548.00;;;13.91;74.81
9009;BME280;62813;51.424;6.762;2023-08-31T00:53:13;100544.31;;;14.06;74.75
9009;BME280;62813;51.424;6.762;2023-08-31T00:55:39;100543.72;;;13.95;74.10
9009;BME280;62813;51.424;6.762;2023-08-31T00:58:07;100547.34;;;13.99;75.03
9009;BME280;62813;51.424;6.762;2023-08-31T01:00:58;100544.13;;;14.02;74.77
9009;BME280;62813;51.424;6.762;2023-08-31T01:03:54;100550.69;;;14.05;73.89
9009;BME280;62813;51.424;6.762;2023-08-31T01:12:00;100540.63;;;13.88;74.85
9009;BME280;62813;51.424;6.762;2023-08-31T01:14:39;100545.19;;;14.01;74.70
9009;BME280;62813;51.424;6.762;2023-08-31T01:17:09;100542.94;;;13.76;74.96
9009;BME280;62813;51.424;6.762;2023-08-31T01:19:57;100537.84;;;13.60;75.64
9009;BME280;62813;51.424;6.762;2023-08-31T01:22:36;100541.63;;;13.73;74.10
9009;BME280;62813;51.424;6.762;2023-08-31T01:25:04;100543.28;;;13.69;75.05
9009;BME280;62813;51.424;6.762;2023-08-31T01:27:32;100542.13;;;13.75;74.81
9009;BME280;62813;51.424;6.762;2023-08-31T01:29:59;100541.41;;;13.70;74.98
9009;BME280;62813;51.424;6.762;2023-08-31T01:32:26;100541.91;;;13.72;74.67
9009;BME280;62813;51.424;6.762;2023-08-31T01:34:53;100545.56;;;13.76;74.40
9009;BME280;62813;51.424;6.762;2023-08-31T01:37:35;100552.38;;;13.82;74.82
9009;BME280;62813;51.424;6.762;2023-08-31T01:40:12;100545.00;;;13.60;75.25
9009;BME280;62813;51.424;6.762;2023-08-31T01:42:42;100551.66;;;13.76;75.16
9009;BME280;62813;51.424;6.762;2023-08-31T01:45:11;100556.31;;;13.84;75.08
9009;BME280;62813;51.424;6.762;2023-08-31T01:47:40;100560.25;;;13.68;75.34
9009;BME280;62813;51.424;6.762;2023-08-31T01:50:08;100567.25;;;13.59;76.22
9009;BME280;62813;51.424;6.762;2023-08-31T01:52:35;100560.88;;;13.79;74.70
9009;BME280;62813;51.424;6.762;2023-08-31T01:55:01;100566.09;;;13.65;74.29
9009;BME280;62813;51.424;6.762;2023-08-31T01:57:29;100566.91;;;13.66;75.59
9009;BME280;62813;51.424;6.762;2023-08-31T01:59:56;100569.19;;;13.72;74.09
9009;BME280;62813;51.424;6.762;2023-08-31T02:02:23;100571.69;;;13.63;75.62
9009;BME280;62813;51.424;6.762;2023-08-31T02:04:49;100574.19;;;13.55;75.89
9009;BME280;62813;51.424;6.762;2023-08-31T02:07:18;100578.28;;;13.66;75.62
9009;BME280;62813;51.424;6.762;2023-08-31T02:09:45;100575.97;;;13.59;75.97
9009;BME280;62813;51.424;6.762;2023-08-31T02:12:11;100575.41;;;13.62;75.92
9009;BME280;62813;51.424;6.762;2023-08-31T02:14:38;100579.19;;;13.56;76.44
9009;BME280;62813;51.424;6.762;2023-08-31T02:17:05;100577.56;;;13.60;75.68
9009;BME280;62813;51.424;6.762;2023-08-31T02:19:31;100571.59;;;13.50;75.56
9009;BME280;62813;51.424;6.762;2023-08-31T02:21:58;100576.31;;;13.53;75.97
9009;BME280;62813;51.424;6.762;2023-08-31T02:24:25;100577.09;;;13.53;75.82
9009;BME280;62813;51.424;6.762;2023-08-31T02:26:51;100582.91;;;13.55;75.19
9009;BME280;62813;51.424;6.762;2023-08-31T02:29:18;100573.09;;;13.56;75.91
9009;BME280;62813;51.424;6.762;2023-08-31T02:31:45;100575.09;;;13.45;76.63
9009;BME280;62813;51.424;6.762;2023-08-31T02:34:12;100575.03;;;13.50;76.59
9009;BME280;62813;51.424;6.762;2023-08-31T02:36:38;100576.00;;;13.36;76.47
9009;BME280;62813;51.424;6.762;2023-08-31T02:39:05;100563.84;;;13.35;77.18
9009;BME280;62813;51.424;6.762;2023-08-31T02:41:32;100573.16;;;13.32;76.35
9009;BME280;62813;51.424;6.762;2023-08-31T02:43:59;100571.22;;;13.38;76.89
9009;BME280;62813;51.424;6.762;2023-08-31T02:46:26;100574.81;;;13.47;76.46
9009;BME280;62813;51.424;6.762;2023-08-31T02:48:52;100575.41;;;13.44;76.78
9009;BME280;62813;51.424;6.762;2023-08-31T02:51:19;100569.94;;;13.35;76.40
9009;BME280;62813;51.424;6.762;2023-08-31T02:53:46;100578.94;;;13.34;77.05
9009;BME280;62813;51.424;6.762;2023-08-31T02:56:12;100575.28;;;13.30;76.23
9009;BME280;62813;51.424;6.762;2023-08-31T02:58:42;100577.38;;;13.33;76.94
9009;BME280;62813;51.424;6.762;2023-08-31T03:01:10;100578.88;;;13.39;75.99
9009;BME280;62813;51.424;6.762;2023-08-31T03:03:38;100579.78;;;13.30;76.76
9009;BME280;62813;51.424;6.762;2023-08-31T03:06:09;100574.94;;;13.37;76.67
9009;BME280;62813;51.424;6.762;2023-08-31T03:08:37;100566.53;;;13.30;76.56
9009;BME280;62813;51.424;6.762;2023-08-31T03:11:04;100573.50;;;13.25;76.63
9009;BME280;62813;51.424;6.762;2023-08-31T03:13:32;100570.84;;;13.25;77.04
9009;BME280;62813;51.424;6.762;2023-08-31T03:16:00;100577.81;;;13.16;76.91
9009;BME280;62813;51.424;6.762;2023-08-31T03:18:27;100573.78;;;13.24;76.43
9009;BME280;62813;51.424;6.762;2023-08-31T03:20:54;100577.75;;;13.21;76.78
9009;BME280;62813;51.424;6.762;2023-08-31T03:23:22;100577.09;;;13.35;77.05
9009;BME280;62813;51.424;6.762;2023-08-31T03:25:48;100581.44;;;13.25;76.96
9009;BME280;62813;51.424;6.762;2023-08-31T03:28:15;100583.31;;;13.20;77.39
9009;BME280;62813;51.424;6.762;2023-08-31T03:30:42;100587.91;;;13.14;77.05
9009;BME280;62813;51.424;6.762;2023-08-31T03:33:11;100584.50;;;13.09;77.50
9009;BME280;62813;51.424;6.762;2023-08-31T03:35:39;100578.56;;;13.22;77.28
9009;BME280;62813;51.424;6.762;2023-08-31T03:38:06;100578.69;;;13.07;77.39
9009;BME280;62813;51.424;6.762;2023-08-31T03:40:32;100577.03;;;13.11;78.44
9009;BME280;62813;51.424;6.762;2023-08-31T03:42:59;100570.47;;;13.08;77.28
9009;BME280;62813;51.424;6.762;2023-08-31T03:45:27;100575.97;;;13.17;77.03
9009;BME280;62813;51.424;6.762;2023-08-31T03:47:53;100572.19;;;13.23;77.04
9009;BME280;62813;51.424;6.762;2023-08-31T03:50:22;100579.63;;;13.21;78.05
9009;BME280;62813;51.424;6.762;2023-08-31T03:52:49;100574.50;;;13.30;77.47
9009;BME280;62813;51.424;6.762;2023-08-31T03:55:16;100577.47;;;13.23;77.31
9009;BME280;62813;51.424;6.762;2023-08-31T03:57:43;100578.38;;;13.37;77.05
9009;BME280;62813;51.424;6.762;2023-08-31T04:00:10;100573.16;;;13.32;76.97
9009;BME280;62813;51.424;6.762;2023-08-31T04:02:39;100577.03;;;13.16;77.26
9009;BME280;62813;51.424;6.762;2023-08-31T04:05:06;100578.63;;;13.17;78.15
9009;BME280;62813;51.424;6.762;2023-08-31T04:07:34;100580.22;;;13.13;76.61
9009;BME280;62813;51.424;6.762;2023-08-31T04:10:00;100580.75;;;13.15;77.28
9009;BME280;62813;51.424;6.762;2023-08-31T04:12:27;100586.66;;;13.02;77.97
9009;BME280;62813;51.424;6.762;2023-08-31T04:14:56;100589.31;;;13.02;78.24
9009;BME280;62813;51.424;6.762;2023-08-31T04:17:23;100590.63;;;13.04;77.45
9009;BME280;62813;51.424;6.762;2023-08-31T04:19:50;100597.22;;;13.07;78.36
9009;BME280;62813;51.424;6.762;2023-08-31T04:22:17;100596.41;;;12.82;78.51
9009;BME280;62813;51.424;6.762;2023-08-31T04:24:46;100594.22;;;12.89;78.04
9009;BME280;62813;51.424;6.762;2023-08-31T04:27:13;100593.19;;;12.85;78.54
9009;BME280;62813;51.424;6.762;2023-08-31T04:29:39;100589.66;;;12.95;78.67
9009;BME280;62813;51.424;6.762;2023-08-31T04:32:06;100587.16;;;13.09;78.50
9009;BME280;62813;51.424;6.762;2023-08-31T04:34:32;100594.06;;;13.05;78.42
9009;BME280;62813;51.424;6.762;2023-08-31T04:36:59;100595.72;;;12.96;77.35
9009;BME280;62813;51.424;6.762;2023-08-31T04:39:26;100600.38;;;13.09;77.93
9009;BME280;62813;51.424;6.762;2023-08-31T04:41:53;100600.94;;;13.06;77.49
9009;BME280;62813;51.424;6.762;2023-08-31T04:44:20;100606.47;;;13.09;77.37
9009;BME280;62813;51.424;6.762;2023-08-31T04:46:46;100603.28;;;13.07;77.70
9009;BME280;62813;51.424;6.762;2023-08-31T04:49:13;100604.34;;;13.06;76.98
9009;BME280;62813;51.424;6.762;2023-08-31T04:51:40;100609.13;;;13.04;77.66
9009;BME280;62813;51.424;6.762;2023-08-31T04:54:08;100613.13;;;13.02;77.89
9009;BME280;62813;51.424;6.762;2023-08-31T04:56:35;100623.16;;;13.05;78.31
9009;BME280;62813;51.424;6.762;2023-08-31T04:59:02;100620.47;;;13.10;77.78
9009;BME280;62813;51.424;6.762;2023-08-31T05:01:29;100619.97;;;13.08;78.85
9009;BME280;62813;51.424;6.762;2023-08-31T05:03:56;100629.63;;;13.22;78.25
9009;BME280;62813;51.424;6.762;2023-08-31T05:06:23;100628.38;;;13.15;78.49
9009;BME280;62813;51.424;6.762;2023-08-31T05:08:49;100632.88;;;13.14;78.91
9009;BME280;62813;51.424;6.762;2023-08-31T05:11:16;100632.41;;;13.07;77.99
9009;BME280;62813;51.424;6.762;2023-08-31T05:13:43;100635.47;;;13.19;78.77
9009;BME280;62813;51.424;6.762;2023-08-31T05:16:10;100641.06;;;13.13;78.74
9009;BME280;62813;51.424;6.762;2023-08-31T05:18:38;100646.63;;;13.16;78.83
9009;BME280;62813;51.424;6.762;2023-08-31T05:21:04;100644.47;;;13.18;78.30
9009;BME280;62813;51.424;6.762;2023-08-31T05:23:31;100651.97;;;13.06;78.33
9009;BME280;62813;51.424;6.762;2023-08-31T05:25:58;100653.78;;;13.11;77.79
9009;BME280;62813;51.424;6.762;2023-08-31T05:28:25;100651.25;;;13.30;77.39
9009;BME280;62813;51.424;6.762;2023-08-31T05:30:54;100659.34;;;13.38;77.47
9009;BME280;62813;51.424;6.762;2023-08-31T05:33:21;100664.53;;;13.48;77.33
9009;BME280;62813;51.424;6.762;2023-08-31T05:35:48;100657.03;;;13.32;77.75
9009;BME280;62813;51.424;6.762;2023-08-31T05:38:15;100652.91;;;13.20;78.42
9009;BME280;62813;51.424;6.762;2023-08-31T05:40:44;100658.78;;;13.17;77.92
9009;BME280;62813;51.424;6.762;2023-08-31T05:43:13;100655.53;;;13.25;78.13
9009;BME280;62813;51.424;6.762;2023-08-31T05:45:40;100666.16;;;13.20;78.58
9009;BME280;62813;51.424;6.762;2023-08-31T05:48:07;100657.03;;;13.32;77.95
9009;BME280;62813;51.424;6.762;2023-08-31T05:50:34;100666.28;;;13.34;78.06
9009;BME280;62813;51.424;6.762;2023-08-31T05:53:03;100662.09;;;13.28;78.65
9009;BME280;62813;51.424;6.762;2023-08-31T05:55:30;100671.06;;;13.56;78.22
9009;BME280;62813;51.424;6.762;2023-08-31T05:57:59;100660.00;;;14.34;75.43
9009;BME280;62813;51.424;6.762;2023-08-31T06:00:27;100665.16;;;14.25;73.99
9009;BME280;62813;51.424;6.762;2023-08-31T06:02:54;100667.78;;;14.07;75.31
9009;BME280;62813;51.424;6.762;2023-08-31T06:05:20;100669.88;;;14.10;75.08
9009;BME280;62813;51.424;6.762;2023-08-31T06:07:49;100672.44;;;13.96;75.47
9009;BME280;62813;51.424;6.762;2023-08-31T06:10:16;100667.28;;;13.86;76.03
9009;BME280;62813;51.424;6.762;2023-08-31T06:12:43;100675.13;;;13.72;76.93
9009;BME280;62813;51.424;6.762;2023-08-31T06:15:09;100676.19;;;13.71;77.00
9009;BME280;62813;51.424;6.762;2023-08-31T06:17:36;100676.09;;;13.57;77.71
9009;BME280;62813;51.424;6.762;2023-08-31T06:20:03;100687.34;;;13.68;77.92
9009;BME280;62813;51.424;6.762;2023-08-31T06:22:32;100687.81;;;13.75;76.94
9009;BME280;62813;51.424;6.762;2023-08-31T06:24:59;100690.97;;;13.77;77.31
9009;BME280;62813;51.424;6.762;2023-08-31T06:27:26;100697.22;;;13.86;77.11
9009;BME280;62813;51.424;6.762;2023-08-31T06:29:53;100703.66;;;13.99;76.60
9009;BME280;62813;51.424;6.762;2023-08-31T06:32:19;100705.81;;;13.97;76.77
9009;BME280;62813;51.424;6.762;2023-08-31T06:34:46;100705.09;;;13.91;77.14
9009;BME280;62813;51.424;6.762;2023-08-31T06:37:13;100702.31;;;14.01;77.16
9009;BME280;62813;51.424;6.762;2023-08-31T06:39:39;100701.56;;;13.96;76.76
9009;BME280;62813;51.424;6.762;2023-08-31T06:42:07;100702.09;;;13.98;77.32
9009;BME280;62813;51.424;6.762;2023-08-31T06:44:34;100705.75;;;14.02;77.05
9009;BME280;62813;51.424;6.762;2023-08-31T06:47:01;100701.44;;;14.06;77.17
9009;BME280;62813;51.424;6.762;2023-08-31T06:49:27;100696.44;;;14.05;77.21
9009;BME280;62813;51.424;6.762;2023-08-31T06:51:54;100704.09;;;14.06;76.56
9009;BME280;62813;51.424;6.762;2023-08-31T06:54:21;100704.19;;;14.20;77.16
9009;BME280;62813;51.424;6.762;2023-08-31T06:56:48;100705.41;;;14.27;76.13
9009;BME280;62813;51.424;6.762;2023-08-31T06:59:15;100704.50;;;14.37;76.82
9009;BME280;62813;51.424;6.762;2023-08-31T07:01:41;100708.16;;;14.41;75.01
9009;BME280;62813;51.424;6.762;2023-08-31T07:04:08;100704.94;;;14.44;76.12
9009;BME280;62813;51.424;6.762;2023-08-31T07:06:35;100714.53;;;14.59;75.40
9009;BME280;62813;51.424;6.762;2023-08-31T07:09:03;100714.38;;;14.69;74.86
9009;BME280;62813;51.424;6.762;2023-08-31T07:11:32;100717.53;;;14.71;74.11
9009;BME280;62813;51.424;6.762;2023-08-31T07:13:59;100722.06;;;14.70;74.95
9009;BME280;62813;51.424;6.762;2023-08-31T07:16:26;100714.81;;;14.76;74.15
9009;BME280;62813;51.424;6.762;2023-08-31T07:18:53;100716.78;;;14.84;74.37
9009;BME280;62813;51.424;6.762;2023-08-31T07:21:19;100714.16;;;14.84;74.18
9009;BME280;62813;51.424;6.762;2023-08-31T07:23:46;100716.81;;;14.98;73.48
9009;BME280;62813;51.424;6.762;2023-08-31T07:26:13;100727.09;;;15.04;73.67
9009;BME280;62813;51.424;6.762;2023-08-31T07:28:39;100719.78;;;14.96;73.67
9009;BME280;62813;51.424;6.762;2023-08-31T07:31:07;100726.66;;;14.97;73.60
9009;BME280;62813;51.424;6.762;2023-08-31T07:33:34;100725.16;;;14.91;73.03
9009;BME280;62813;51.424;6.762;2023-08-31T07:36:05;100725.03;;;14.83;73.66
9009;BME280;62813;51.424;6.762;2023-08-31T07:38:33;100733.34;;;14.95;73.97
9009;BME280;62813;51.424;6.762;2023-08-31T07:41:00;100739.44;;;14.95;74.38
9009;BME280;62813;51.424;6.762;2023-08-31T07:43:27;100747.88;;;14.97;73.71
9009;BME280;62813;51.424;6.762;2023-08-31T07:45:54;100743.00;;;15.04;73.78
9009;BME280;62813;51.424;6.762;2023-08-31T07:48:20;100741.94;;;15.05;73.58
9009;BME280;62813;51.424;6.762;2023-08-31T07:50:48;100747.06;;;15.15;73.77
9009;BME280;62813;51.424;6.762;2023-08-31T07:53:15;100744.53;;;15.24;73.38
9009;BME280;62813;51.424;6.762;2023-08-31T07:55:54;100742.66;;;15.25;72.42
9009;BME280;62813;51.424;6.762;2023-08-31T07:58:21;100742.88;;;15.28;73.58
9009;BME280;62813;51.424;6.762;2023-08-31T08:00:51;100747.59;;;15.31;73.46
9009;BME280;62813;51.424;6.762;2023-08-31T08:03:18;100749.00;;;15.42;73.60
9009;BME280;62813;51.424;6.762;2023-08-31T08:05:48;100747.53;;;15.50;73.23
9009;BME280;62813;51.424;6.762;2023-08-31T08:08:14;100755.78;;;15.48;73.52
9009;BME280;62813;51.424;6.762;2023-08-31T08:10:41;100747.19;;;15.57;73.32
9009;BME280;62813;51.424;6.762;2023-08-31T08:13:10;100756.34;;;15.64;72.82
9009;BME280;62813;51.424;6.762;2023-08-31T08:15:38;100758.69;;;15.66;72.66
9009;BME280;62813;51.424;6.762;2023-08-31T08:18:04;100755.94;;;15.71;72.67
9009;BME280;62813;51.424;6.762;2023-08-31T08:20:31;100760.38;;;15.75;72.25
9009;BME280;62813;51.424;6.762;2023-08-31T08:22:58;100758.72;;;15.79;72.11
9009;BME280;62813;51.424;6.762;2023-08-31T08:25:25;100762.34;;;15.83;71.21
9009;BME280;62813;51.424;6.762;2023-08-31T08:27:52;100768.34;;;15.89;71.83
9009;BME280;62813;51.424;6.762;2023-08-31T08:30:18;100765.28;;;15.96;71.27
9009;BME280;62813;51.424;6.762;2023-08-31T08:32:45;100772.06;;;16.02;71.05
9009;BME280;62813;51.424;6.762;2023-08-31T08:35:12;100772.97;;;15.97;71.66
9009;BME280;62813;51.424;6.762;2023-08-31T08:37:39;100779.66;;;16.08;71.60
9009;BME280;62813;51.424;6.762;2023-08-31T08:40:07;100785.75;;;16.09;71.66
9009;BME280;62813;51.424;6.762;2023-08-31T08:42:38;100778.56;;;16.09;71.36
9009;BME280;62813;51.424;6.762;2023-08-31T08:45:15;100773.47;;;16.13;70.75
9009;BME280;62813;51.424;6.762;2023-08-31T08:47:43;100767.66;;;16.24;69.88
9009;BME280;62813;51.424;6.762;2023-08-31T08:50:11;100781.41;;;16.26;70.21
9009;BME280;62813;51.424;6.762;2023-08-31T08:52:39;100773.13;;;16.28;70.88
9009;BME280;62813;51.424;6.762;2023-08-31T08:55:08;100774.31;;;16.36;70.26
9009;BME280;62813;51.424;6.762;2023-08-31T08:57:35;100773.78;;;16.47;70.07
9009;BME280;62813;51.424;6.762;2023-08-31T09:00:02;100778.41;;;16.42;69.83
9009;BME280;62813;51.424;6.762;2023-08-31T09:02:30;100777.25;;;16.34;69.95
9009;BME280;62813;51.424;6.762;2023-08-31T09:04:56;100782.66;;;16.43;69.65
9009;BME280;62813;51.424;6.762;2023-08-31T09:07:24;100784.16;;;16.49;69.70
9009;BME280;62813;51.424;6.762;2023-08-31T09:09:52;100779.91;;;16.61;69.37
9009;BME280;62813;51.424;6.762;2023-08-31T09:12:23;100784.69;;;16.59;69.09
9009;BME280;62813;51.424;6.762;2023-08-31T09:15:00;100779.78;;;16.67;68.96
9009;BME280;62813;51.424;6.762;2023-08-31T09:17:43;100776.50;;;16.70;68.94
9009;BME280;62813;51.424;6.762;2023-08-31T09:20:13;100782.69;;;16.79;68.42
9009;BME280;62813;51.424;6.762;2023-08-31T09:22:42;100779.59;;;16.85;68.59
9009;BME280;62813;51.424;6.762;2023-08-31T09:25:11;100779.94;;;16.84;67.82
9009;BME280;62813;51.424;6.762;2023-08-31T09:27:38;100784.03;;;16.90;67.95
9009;BME280;62813;51.424;6.762;2023-08-31T09:30:07;100777.69;;;16.99;67.46
9009;BME280;62813;51.424;6.762;2023-08-31T09:32:35;100775.44;;;17.15;67.47
9009;BME280;62813;51.424;6.762;2023-08-31T09:35:03;100779.25;;;17.23;67.05
9009;BME280;62813;51.424;6.762;2023-08-31T09:37:54;100786.81;;;17.29;66.49
9009;BME280;62813;51.424;6.762;2023-08-31T09:40:23;100779.06;;;17.19;64.56
9009;BME280;62813;51.424;6.762;2023-08-31T09:42:50;100783.97;;;17.26;65.00
9009;BME280;62813;51.424;6.762;2023-08-31T09:45:30;100783.88;;;17.39;65.62
9009;BME280;62813;51.424;6.762;2023-08-31T09:48:04;100784.59;;;17.54;64.69
9009;BME280;62813;51.424;6.762;2023-08-31T09:50:33;100780.44;;;17.70;63.96
9009;BME280;62813;51.424;6.762;2023-08-31T09:53:04;100781.25;;;17.70;63.56
9009;BME280;62813;51.424;6.762;2023-08-31T09:55:32;100779.09;;;17.50;64.60
9009;BME280;62813;51.424;6.762;2023-08-31T09:58:00;100783.28;;;17.43;63.50
9009;BME280;62813;51.424;6.762;2023-08-31T10:00:41;100773.47;;;17.52;63.16
9009;BME280;62813;51.424;6.762;2023-08-31T10:03:08;100783.00;;;17.53;61.95
9009;BME280;62813;51.424;6.762;2023-08-31T10:05:38;100776.91;;;17.52;62.86
9009;BME280;62813;51.424;6.762;2023-08-31T10:08:05;100791.94;;;17.48;61.94
9009;BME280;62813;51.424;6.762;2023-08-31T10:10:34;100784.78;;;17.57;62.80
9009;BME280;62813;51.424;6.762;2023-08-31T10:13:01;100784.69;;;17.71;62.45
9009;BME280;62813;51.424;6.762;2023-08-31T10:15:32;100787.88;;;17.82;62.52
9009;BME280;62813;51.424;6.762;2023-08-31T10:18:04;100785.84;;;17.87;62.34
9009;BME280;62813;51.424;6.762;2023-08-31T10:20:32;100784.47;;;17.90;61.12
9009;BME280;62813;51.424;6.762;2023-08-31T10:23:06;100792.34;;;17.95;59.80
9009;BME280;62813;51.424;6.762;2023-08-31T10:28:23;100783.88;;;18.01;60.19
9009;BME280;62813;51.424;6.762;2023-08-31T10:31:20;100788.00;;;18.16;60.91
9009;BME280;62813;51.424;6.762;2023-08-31T10:34:00;100787.06;;;18.29;59.86
9009;BME280;62813;51.424;6.762;2023-08-31T10:36:39;100782.97;;;18.23;60.09
9009;BME280;62813;51.424;6.762;2023-08-31T10:39:14;100789.41;;;18.31;61.27
9009;BME280;62813;51.424;6.762;2023-08-31T10:41:56;100794.66;;;18.44;60.25
9009;BME280;62813;51.424;6.762;2023-08-31T10:44:25;100790.72;;;18.42;59.91
9009;BME280;62813;51.424;6.762;2023-08-31T10:46:53;100786.00;;;18.56;59.77
9009;BME280;62813;51.424;6.762;2023-08-31T10:49:21;100784.44;;;18.55;59.95
9009;BME280;62813;51.424;6.762;2023-08-31T10:51:56;100781.31;;;18.44;59.17
9009;BME280;62813;51.424;6.762;2023-08-31T10:54:31;100778.28;;;18.20;59.46
9009;BME280;62813;51.424;6.762;2023-08-31T10:57:03;100782.44;;;18.04;60.05
9009;BME280;62813;51.424;6.762;2023-08-31T11:02:27;100774.47;;;18.12;60.42
9009;BME280;62813;51.424;6.762;2023-08-31T11:04:59;100786.69;;;18.05;60.04
9009;BME280;62813;51.424;6.762;2023-08-31T11:07:27;100788.72;;;17.99;59.70
9009;BME280;62813;51.424;6.762;2023-08-31T11:10:17;100794.81;;;17.91;61.45
9009;BME280;62813;51.424;6.762;2023-08-31T11:12:46;100787.22;;;17.67;65.76
9009;BME280;62813;51.424;6.762;2023-08-31T11:15:15;100780.72;;;17.60;68.14
9009;BME280;62813;51.424;6.762;2023-08-31T11:17:42;100780.50;;;17.48;68.75
9009;BME280;62813;51.424;6.762;2023-08-31T11:20:14;100775.50;;;17.55;67.45
9009;BME280;62813;51.424;6.762;2023-08-31T11:22:43;100770.34;;;17.58;67.66
9009;BME280;62813;51.424;6.762;2023-08-31T11:25:12;100770.47;;;17.53;68.34
9009;BME280;62813;51.424;6.762;2023-08-31T11:27:39;100770.16;;;17.55;67.65
9009;BME280;62813;51.424;6.762;2023-08-31T11:30:15;100770.25;;;17.63;67.69
9009;BME280;62813;51.424;6.762;2023-08-31T11:32:50;100759.75;;;17.67;67.04
9009;BME280;62813;51.424;6.762;2023-08-31T11:35:19;100760.41;;;17.72;65.86
9009;BME280;62813;51.424;6.762;2023-08-31T11:37:51;100761.78;;;17.70;64.50
9009;BME280;62813;51.424;6.762;2023-08-31T11:40:18;100762.72;;;17.65;62.04
9009;BME280;62813;51.424;6.762;2023-08-31T11:42:45;100763.56;;;17.74;61.87
9009;BME280;62813;51.424;6.762;2023-08-31T11:45:12;100759.31;;;17.73;61.44
9009;BME280;62813;51.424;6.762;2023-08-31T11:47:41;100749.66;;;17.86;61.62
9009;BME280;62813;51.424;6.762;2023-08-31T11:50:11;100757.78;;;17.81;61.25
9009;BME280;62813;51.424;6.762;2023-08-31T11:52:40;100747.44;;;17.88;60.16
9009;BME280;62813;51.424;6.762;2023-08-31T11:55:14;100754.38;;;17.98;60.38
9009;BME280;62813;51.424;6.762;2023-08-31T11:57:48;100756.91;;;18.03;59.65
9009;BME280;62813;51.424;6.762;2023-08-31T12:00:18;100755.19;;;18.07;59.99
9009;BME280;62813;51.424;6.762;2023-08-31T12:02:55;100752.53;;;18.15;59.16
9009;BME280;62813;51.424;6.762;2023-08-31T12:05:22;100767.75;;;18.24;59.62
9009;BME280;62813;51.424;6.762;2023-08-31T12:07:49;100766.84;;;18.28;59.54
9009;BME280;62813;51.424;6.762;2023-08-31T12:10:17;100756.31;;;18.32;58.88
9009;BME280;62813;51.424;6.762;2023-08-31T12:12:44;100764.31;;;18.32;58.18
9009;BME280;62813;51.424;6.762;2023-08-31T12:15:10;100754.44;;;18.41;57.61
9009;BME280;62813;51.424;6.762;2023-08-31T12:17:38;100765.59;;;18.43;57.84
9009;BME280;62813;51.424;6.762;2023-08-31T12:20:06;100752.88;;;18.48;57.71
9009;BME280;62813;51.424;6.762;2023-08-31T12:22:33;100773.13;;;18.49;58.56
9009;BME280;62813;51.424;6.762;2023-08-31T12:25:00;100759.16;;;18.44;58.94
9009;BME280;62813;51.424;6.762;2023-08-31T12:27:26;100766.53;;;18.47;58.70
9009;BME280;62813;51.424;6.762;2023-08-31T12:29:54;100763.88;;;18.56;57.99
9009;BME280;62813;51.424;6.762;2023-08-31T12:32:21;100761.06;;;18.43;57.04
9009;BME280;62813;51.424;6.762;2023-08-31T12:34:48;100759.31;;;18.47;55.84
9009;BME280;62813;51.424;6.762;2023-08-31T12:37:15;100762.28;;;18.54;56.26
9009;BME280;62813;51.424;6.762;2023-08-31T12:39:42;100761.19;;;18.56;57.12
9009;BME280;62813;51.424;6.762;2023-08-31T12:42:11;100769.56;;;18.63;57.14
9009;BME280;62813;51.424;6.762;2023-08-31T12:44:49;100759.34;;;18.73;56.87
9009;BME280;62813;51.424;6.762;2023-08-31T12:47:15;100754.66;;;18.79;56.82
9009;BME280;62813;51.424;6.762;2023-08-31T12:49:42;100747.84;;;18.99;56.37
9009;BME280;62813;51.424;6.762;2023-08-31T12:52:09;100757.91;;;18.93;57.64
9009;BME280;62813;51.424;6.762;2023-08-31T12:54:35;100757.44;;;19.00;56.66
9009;BME280;62813;51.424;6.762;2023-08-31T12:57:02;100753.19;;;18.99;56.12
9009;BME280;62813;51.424;6.762;2023-08-31T12:59:29;100755.25;;;18.93;56.28
9009;BME280;62813;51.424;6.762;2023-08-31T13:01:56;100763.75;;;18.95;55.38
9009;BME280;62813;51.424;6.762;2023-08-31T13:04:24;100766.72;;;19.02;54.57
9009;BME280;62813;51.424;6.762;2023-08-31T13:06:50;100758.81;;;19.14;54.58
9009;BME280;62813;51.424;6.762;2023-08-31T13:09:17;100767.28;;;19.25;54.07
9009;BME280;62813;51.424;6.762;2023-08-31T13:11:44;100755.19;;;19.27;53.20
9009;BME280;62813;51.424;6.762;2023-08-31T13:14:10;100747.94;;;19.37;53.28
9009;BME280;62813;51.424;6.762;2023-08-31T13:16:37;100744.91;;;19.47;53.08
9009;BME280;62813;51.424;6.762;2023-08-31T13:19:07;100749.09;;;19.65;53.11